Time;durP1;ratioP1;P1;durP2;ratioP2;P2;SDS_P1;SDS_P2;PMS_P1;PMS_P2;Temp;Humidity;BMP_temperature;BMP_pressure;BME280_temperature;BME280_humidity;BME280_pressure;Samples;Min_cycle;Max_cycle;Signal;HPM_P1;HPM_P2
2023/07/22 00:01:28;;;;;;;5.53;4.03;;;14.70;1.00;;;;;;4997309;28;20271;-76
2023/07/22 00:03:54;;;;;;;4.40;4.00;;;14.80;1.00;;;;;;4992611;28;20192;-77
2023/07/22 00:06:20;;;;;;;6.43;3.90;;;14.70;1.00;;;;;;4997778;28;20212;-76
2023/07/22 00:08:45;;;;;;;4.32;3.90;;;14.60;99.90;;;;;;4994308;28;20207;-75
2023/07/22 00:11:17;;;;;;;4.10;3.70;;;14.50;1.00;;;;;;4995318;28;20181;-76
2023/07/22 00:13:43;;;;;;;5.97;3.58;;;14.50;1.00;;;;;;4999450;28;20185;-75
2023/07/22 00:16:10;;;;;;;5.60;3.70;;;14.40;1.00;;;;;;4992461;28;20212;-75
2023/07/22 00:18:36;;;;;;;5.10;3.78;;;14.40;1.00;;;;;;4996534;28;20181;-75
2023/07/22 00:21:02;;;;;;;6.28;4.32;;;14.30;1.00;;;;;;5005062;28;20191;-76
2023/07/22 00:23:28;;;;;;;5.05;4.53;;;14.30;34.60;;;;;;4991323;28;20234;-75
2023/07/22 00:26:07;;;;;;;4.82;4.32;;;14.30;99.90;;;;;;4999690;28;20755;-75
2023/07/22 00:28:32;;;;;;;5.45;4.32;;;14.20;1.00;;;;;;4992077;28;20217;-75
2023/07/22 00:30:58;;;;;;;4.90;4.47;;;14.20;1.00;;;;;;4991725;28;20212;-76
2023/07/22 00:33:26;;;;;;;5.68;5.10;;;14.10;99.90;;;;;;4982592;28;20196;-75
2023/07/22 00:35:52;;;;;;;5.22;4.82;;;14.10;99.90;;;;;;4997272;28;20200;-76
2023/07/22 00:38:19;;;;;;;4.82;4.43;;;14.20;99.90;;;;;;4992733;28;20243;-77
2023/07/22 00:40:45;;;;;;;5.43;4.93;;;14.20;1.00;;;;;;4993467;28;20230;-75
2023/07/22 00:43:18;;;;;;;5.50;4.50;;;14.20;1.00;;;;;;4997331;28;20535;-76
2023/07/22 00:45:43;;;;;;;4.78;4.20;;;14.10;1.00;;;;;;5000619;28;20781;-74
2023/07/22 00:48:10;;;;;;;4.85;4.45;;;14.10;1.00;;;;;;4996705;28;20283;-76
2023/07/22 00:50:36;;;;;;;5.88;4.53;;;14.10;1.00;;;;;;4995993;28;20242;-75
2023/07/22 00:53:03;;;;;;;7.40;5.38;;;14.10;1.00;;;;;;4997816;28;20182;-74
2023/07/22 00:55:29;;;;;;;5.40;4.90;;;14.00;1.00;;;;;;4994104;28;20207;-76
2023/07/22 00:57:56;;;;;;;5.78;5.28;;;14.00;99.90;;;;;;4998030;28;20190;-77
2023/07/22 01:00:21;;;;;;;6.28;4.80;;;13.90;99.90;;;;;;4995734;28;20663;-76
2023/07/22 01:02:47;;;;;;;5.68;5.18;;;13.90;1.00;;;;;;4999887;28;20193;-75
2023/07/22 01:05:19;;;;;;;5.28;4.78;;;13.90;1.00;;;;;;4990389;28;20651;-77
2023/07/22 01:07:44;;;;;;;7.35;5.80;;;13.80;1.00;;;;;;4988432;28;20172;-76
2023/07/22 01:10:10;;;;;;;6.07;5.40;;;13.80;95.60;;;;;;4995020;28;20200;-77
2023/07/22 01:12:45;;;;;;;6.30;5.22;;;13.80;1.00;;;;;;4995750;28;20608;-77
2023/07/22 01:15:11;;;;;;;5.95;5.35;;;13.80;1.00;;;;;;4978738;28;20239;-76
2023/07/22 01:17:38;;;;;;;7.50;6.50;;;13.80;1.00;;;;;;4995237;28;20219;-76
2023/07/22 01:20:05;;;;;;;6.95;5.75;;;13.70;1.00;;;;;;4988879;28;20702;-76
2023/07/22 01:22:33;;;;;;;6.28;5.68;;;13.70;1.00;;;;;;4989770;28;20602;-77
2023/07/22 01:24:59;;;;;;;6.32;4.97;;;13.70;1.00;;;;;;4997438;28;20226;-75
2023/07/22 01:27:25;;;;;;;6.30;5.70;;;13.70;1.00;;;;;;4990882;28;20188;-77
2023/07/22 01:29:51;;;;;;;6.63;5.78;;;13.70;1.00;;;;;;4994824;28;20726;-77
2023/07/22 01:32:18;;;;;;;7.97;6.40;;;13.60;1.00;;;;;;4995902;28;20180;-75
2023/07/22 01:34:44;;;;;;;5.60;5.03;;;13.70;1.00;;;;;;4987625;28;20200;-77
2023/07/22 01:37:10;;;;;;;7.05;6.35;;;13.70;1.00;;;;;;4991980;28;20284;-77
2023/07/22 01:39:35;;;;;;;7.03;6.30;;;13.60;1.00;;;;;;4988151;28;20272;-78
2023/07/22 01:42:02;;;;;;;6.38;5.78;;;13.60;1.00;;;;;;4997605;28;20238;-75
2023/07/22 01:44:28;;;;;;;6.47;5.38;;;13.60;1.00;;;;;;4995843;28;20208;-77
2023/07/22 01:46:54;;;;;;;8.32;5.75;;;13.50;1.00;;;;;;4997192;28;20544;-77
2023/07/22 01:49:26;;;;;;;7.22;5.95;;;13.60;1.00;;;;;;4989678;28;20242;-76
2023/07/22 01:51:52;;;;;;;6.07;5.45;;;13.60;99.90;;;;;;4996702;28;20184;-75
2023/07/22 01:54:18;;;;;;;6.70;6.00;;;13.60;1.00;;;;;;4998595;28;20211;-76
2023/07/22 01:56:46;;;;;;;7.60;5.82;;;13.50;1.00;;;;;;5004439;28;20211;-75
2023/07/22 01:59:11;;;;;;;7.38;5.70;;;13.50;1.00;;;;;;4998143;28;20195;-78
2023/07/22 02:01:37;;;;;;;7.43;6.40;;;13.50;1.00;;;;;;4997907;28;20183;-76
2023/07/22 02:04:03;;;;;;;7.05;6.35;;;13.50;1.00;;;;;;4991496;28;20703;-76
2023/07/22 02:06:29;;;;;;;6.75;6.15;;;13.50;99.90;;;;;;4994684;28;20258;-75
2023/07/22 02:08:55;;;;;;;8.07;7.28;;;13.40;1.00;;;;;;4994230;28;20208;-76
2023/07/22 02:11:21;;;;;;;9.63;7.00;;;13.40;1.00;;;;;;5000856;28;20188;-75
2023/07/22 02:13:47;;;;;;;7.70;6.22;;;13.30;1.00;;;;;;4992666;28;20252;-77
2023/07/22 02:16:12;;;;;;;9.13;6.22;;;13.30;1.00;;;;;;4998653;28;20208;-77
2023/07/22 02:18:44;;;;;;;7.10;6.28;;;13.30;1.00;;;;;;4992603;28;20192;-76
2023/07/22 02:21:10;;;;;;;6.93;5.95;;;13.30;1.00;;;;;;4999548;28;20195;-75
2023/07/22 02:23:35;;;;;;;8.27;6.53;;;13.30;1.00;;;;;;4995272;28;20188;-77
2023/07/22 02:26:08;;;;;;;8.30;6.75;;;13.30;1.00;;;;;;4997578;28;20534;-76
2023/07/22 02:28:34;;;;;;;7.63;6.63;;;13.30;1.00;;;;;;4994517;28;20188;-76
2023/07/22 02:31:06;;;;;;;7.63;6.82;;;13.20;1.00;;;;;;4992052;28;20658;-76
2023/07/22 02:33:37;;;;;;;7.90;6.38;;;13.20;1.00;;;;;;4998235;28;20706;-75
2023/07/22 02:36:03;;;;;;;9.52;6.47;;;13.20;1.00;;;;;;4992991;28;20263;-76
2023/07/22 02:38:29;;;;;;;7.75;6.28;;;13.20;1.00;;;;;;4997516;28;20215;-75
2023/07/22 02:41:03;;;;;;;9.07;7.50;;;13.20;1.00;;;;;;4998614;28;20235;-75
2023/07/22 02:43:36;;;;;;;6.63;5.97;;;13.10;1.00;;;;;;4997224;28;20187;-76
2023/07/22 02:46:03;;;;;;;8.70;7.88;;;13.10;1.00;;;;;;4995508;28;20254;-77
2023/07/22 02:48:33;;;;;;;10.57;8.23;;;13.00;21.80;;;;;;4993082;28;20184;-76
2023/07/22 02:51:09;;;;;;;8.73;7.70;;;13.00;99.90;;;;;;4995221;28;20515;-75
2023/07/22 02:53:38;;;;;;;10.57;8.20;;;13.00;89.80;;;;;;5001101;28;20231;-75
2023/07/22 02:56:06;;;;;;;10.80;7.43;;;13.10;2.70;;;;;;5000963;28;20682;-75
2023/07/22 02:58:33;;;;;;;8.98;7.13;;;13.00;99.90;;;;;;4992784;28;20184;-77
2023/07/22 03:00:58;;;;;;;10.52;7.90;;;13.00;1.00;;;;;;5000954;28;20544;-76
2023/07/22 03:03:24;;;;;;;9.10;7.90;;;13.70;1.00;;;;;;4997529;28;20237;-76
2023/07/22 03:05:50;;;;;;;7.47;6.70;;;13.00;1.00;;;;;;4992387;28;20212;-75
2023/07/22 03:08:17;;;;;;;9.45;7.70;;;13.10;1.00;;;;;;4998392;28;20177;-75
2023/07/22 03:10:48;;;;;;;8.85;7.88;;;13.10;1.00;;;;;;4993212;28;20212;-77
2023/07/22 03:13:19;;;;;;;8.43;7.53;;;13.00;1.00;;;;;;4995217;28;20659;-76
2023/07/22 03:15:45;;;;;;;10.40;7.47;;;13.00;1.00;;;;;;4989924;28;20205;-75
2023/07/22 03:18:11;;;;;;;7.88;7.13;;;12.90;1.00;;;;;;4971346;28;20236;-74
2023/07/22 03:20:37;;;;;;;9.15;7.25;;;12.90;99.90;;;;;;4988025;28;20196;-75
2023/07/22 03:23:04;;;;;;;9.95;8.02;;;12.90;1.00;;;;;;4991099;28;20283;-77
2023/07/22 03:25:30;;;;;;;8.00;7.20;;;12.90;1.00;;;;;;4992308;28;20240;-76
2023/07/22 03:27:57;;;;;;;8.68;7.38;;;12.90;1.00;;;;;;4990795;28;20226;-76
2023/07/22 03:30:23;;;;;;;9.32;7.25;;;13.00;1.00;;;;;;4992736;28;20203;-75
2023/07/22 03:32:50;;;;;;;8.85;7.40;;;13.20;1.00;;;;;;4989858;28;20181;-74
2023/07/22 03:35:16;;;;;;;8.60;6.70;;;13.20;1.00;;;;;;4994037;28;20204;-76
2023/07/22 03:37:43;;;;;;;8.07;7.05;;;13.20;99.90;;;;;;4993434;28;20193;-76
2023/07/22 03:40:29;;;;;;;9.07;7.57;;;13.20;1.00;;;;;;5001674;28;20179;-75
2023/07/22 03:42:58;;;;;;;9.35;7.32;;;13.30;1.00;;;;;;4991863;28;20311;-75
2023/07/22 03:45:24;;;;;;;8.77;7.50;;;13.30;99.90;;;;;;4993746;28;20208;-75
2023/07/22 03:48:00;;;;;;;10.15;7.55;;;13.30;99.90;;;;;;4989509;28;20215;-75
2023/07/22 03:50:26;;;;;;;8.38;7.20;;;13.40;99.90;;;;;;4993425;28;20212;-75
2023/07/22 03:52:52;;;;;;;10.63;7.78;;;13.40;99.90;;;;;;4991841;28;20714;-76
2023/07/22 03:55:19;;;;;;;8.50;6.90;;;13.50;99.90;;;;;;4992574;28;20294;-76
2023/07/22 03:57:45;;;;;;;9.40;7.28;;;13.50;99.90;;;;;;4993917;28;20176;-76
2023/07/22 04:00:11;;;;;;;8.88;7.40;;;13.60;99.90;;;;;;4981385;28;20553;-76
2023/07/22 04:02:37;;;;;;;9.02;7.30;;;13.60;99.90;;;;;;4997411;28;20191;-75
2023/07/22 04:05:05;;;;;;;9.63;7.15;;;13.60;99.90;;;;;;4990702;28;20231;-76
2023/07/22 04:07:31;;;;;;;10.23;7.25;;;13.70;99.90;;;;;;4990380;28;20184;-77
2023/07/22 04:09:57;;;;;;;9.07;7.25;;;13.70;99.90;;;;;;4988652;28;20690;-77
2023/07/22 04:12:23;;;;;;;10.35;7.60;;;13.90;99.90;;;;;;4992969;28;20211;-76
2023/07/22 04:14:48;;;;;;;9.00;7.60;;;13.90;99.90;;;;;;4994188;28;20290;-76
2023/07/22 04:17:15;;;;;;;8.88;7.45;;;14.00;98.60;;;;;;4988595;28;20753;-78
2023/07/22 04:19:43;;;;;;;10.45;7.47;;;14.00;99.90;;;;;;4992223;28;20741;-77
2023/07/22 04:22:09;;;;;;;8.68;7.25;;;14.10;10.00;;;;;;4992245;28;20187;-77
2023/07/22 04:24:34;;;;;;;9.40;7.20;;;14.20;23.90;;;;;;4989820;28;20204;-77
2023/07/22 04:27:01;;;;;;;8.20;7.40;;;14.20;1.00;;;;;;4989688;28;20651;-76
2023/07/22 04:29:27;;;;;;;8.13;7.18;;;14.20;1.00;;;;;;4992441;28;20207;-75
2023/07/22 04:31:58;;;;;;;9.80;7.40;;;14.30;1.00;;;;;;4997763;28;20726;-77
2023/07/22 04:34:31;;;;;;;8.60;7.35;;;14.30;1.00;;;;;;4991973;28;20210;-76
2023/07/22 04:36:57;;;;;;;9.13;6.72;;;14.30;1.00;;;;;;4998360;28;20183;-77
2023/07/22 04:39:23;;;;;;;10.15;6.70;;;14.40;1.00;;;;;;4990220;28;20188;-75
2023/07/22 04:42:02;;;;;;;10.90;7.65;;;14.40;1.00;;;;;;4990747;28;20670;-75
2023/07/22 04:44:28;;;;;;;9.13;6.70;;;14.50;1.00;;;;;;4992411;28;20220;-76
2023/07/22 04:46:54;;;;;;;9.77;6.88;;;14.60;1.00;;;;;;4999431;28;20184;-76
2023/07/22 04:49:19;;;;;;;10.27;6.45;;;14.70;1.00;;;;;;4994354;28;20210;-75
2023/07/22 04:51:46;;;;;;;8.75;6.50;;;14.70;1.00;;;;;;4988656;28;20659;-75
2023/07/22 04:54:11;;;;;;;7.18;6.47;;;14.70;1.00;;;;;;4993028;28;20271;-75
2023/07/22 04:56:39;;;;;;;7.97;6.63;;;14.70;1.00;;;;;;4993955;28;20319;-75
2023/07/22 04:59:05;;;;;;;8.70;6.90;;;14.70;1.00;;;;;;4991353;28;20581;-76
2023/07/22 05:01:30;;;;;;;8.73;6.93;;;14.80;1.00;;;;;;4993680;28;20189;-76
2023/07/22 05:03:57;;;;;;;8.55;6.45;;;14.90;1.00;;;;;;4996794;28;20254;-76
2023/07/22 05:06:24;;;;;;;8.30;6.80;;;15.00;1.00;;;;;;4971257;28;20212;-76
2023/07/22 05:08:50;;;;;;;8.55;6.38;;;15.20;99.90;;;;;;4993086;28;20184;-75
2023/07/22 05:11:16;;;;;;;8.38;7.25;;;15.30;99.90;;;;;;4999119;28;20192;-76
2023/07/22 05:13:42;;;;;;;7.55;6.50;;;15.40;99.90;;;;;;4999495;28;20185;-76
2023/07/22 05:16:08;;;;;;;8.45;6.47;;;15.40;99.90;;;;;;4999817;28;20687;-77
2023/07/22 05:18:33;;;;;;;6.63;5.93;;;15.50;99.90;;;;;;4997117;28;20224;-75
2023/07/22 05:20:59;;;;;;;6.70;6.00;;;16.30;99.90;;;;;;4992370;28;20298;-77
2023/07/22 05:23:25;;;;;;;6.93;5.65;;;17.40;84.10;;;;;;4990484;28;20229;-76
2023/07/22 05:25:52;;;;;;;5.57;5.00;;;18.50;1.00;;;;;;4986389;28;20212;-76
2023/07/22 05:28:18;;;;;;;5.75;5.00;;;19.30;1.00;;;;;;4996861;28;20184;-76
2023/07/22 05:30:43;;;;;;;7.70;5.38;;;20.10;1.00;;;;;;4997936;28;20591;-76
2023/07/22 05:33:09;;;;;;;6.28;5.07;;;20.70;1.00;;;;;;4988761;28;20749;-75
2023/07/22 05:35:34;;;;;;;5.97;4.82;;;21.40;1.00;;;;;;4995827;28;20207;-77
2023/07/22 05:38:03;;;;;;;7.03;5.00;;;21.80;1.00;;;;;;5000266;28;20191;-78
2023/07/22 05:40:29;;;;;;;5.57;4.53;;;21.80;1.00;;;;;;4992382;28;20184;-77
2023/07/22 05:42:54;;;;;;;6.07;4.82;;;21.90;1.00;;;;;;4995098;28;20526;-75
2023/07/22 05:45:20;;;;;;;5.78;4.80;;;22.20;1.00;;;;;;4992425;28;20207;-76
2023/07/22 05:47:45;;;;;;;5.15;4.60;;;22.20;1.00;;;;;;5002222;28;20191;-76
2023/07/22 05:50:11;;;;;;;6.18;4.65;;;22.30;1.00;;;;;;4994302;28;20666;-77
2023/07/22 05:52:37;;;;;;;4.57;4.18;;;22.20;1.00;;;;;;4995027;28;20184;-74
2023/07/22 05:55:03;;;;;;;5.20;4.53;;;22.50;1.00;;;;;;5000549;28;20203;-76
2023/07/22 05:57:28;;;;;;;5.65;4.93;;;23.00;1.00;;;;;;4987952;28;20192;-75
2023/07/22 05:59:54;;;;;;;5.13;4.50;;;22.70;1.00;;;;;;4989500;28;20191;-76
2023/07/22 06:02:19;;;;;;;5.30;4.75;;;22.70;1.00;;;;;;4989830;28;20648;-77
2023/07/22 06:04:45;;;;;;;6.78;4.50;;;22.70;1.00;;;;;;4974277;28;20208;-75
2023/07/22 06:07:11;;;;;;;6.35;4.80;;;23.10;1.00;;;;;;4989023;28;20565;-77
2023/07/22 06:09:36;;;;;;;6.55;4.43;;;23.70;1.00;;;;;;4995566;28;20265;-77
2023/07/22 06:12:03;;;;;;;6.65;4.85;;;24.00;1.00;;;;;;4988168;28;20216;-75
2023/07/22 06:14:28;;;;;;;5.43;4.25;;;23.70;1.00;;;;;;4993071;28;20208;-74
2023/07/22 06:16:54;;;;;;;4.45;4.03;;;24.00;1.00;;;;;;5000679;28;20815;-75
2023/07/22 06:19:19;;;;;;;5.30;4.15;;;24.70;1.00;;;;;;4991114;28;20191;-77
2023/07/22 06:21:45;;;;;;;5.93;4.10;;;24.90;1.00;;;;;;4991349;28;20537;-78
2023/07/22 06:24:11;;;;;;;6.00;4.47;;;24.80;1.00;;;;;;4989956;28;20220;-76
2023/07/22 06:26:36;;;;;;;5.10;4.60;;;25.30;1.00;;;;;;4974731;28;20342;-73
2023/07/22 06:29:02;;;;;;;5.72;5.10;;;25.60;1.00;;;;;;4994707;28;20219;-75
2023/07/22 06:31:30;;;;;;;6.03;4.60;;;25.40;1.00;;;;;;4994161;28;20211;-74
2023/07/22 06:33:59;;;;;;;5.35;4.30;;;25.60;1.00;;;;;;4987968;28;20245;-78
2023/07/22 06:36:26;;;;;;;6.88;4.63;;;26.20;1.00;;;;;;4991758;28;20211;-75
2023/07/22 06:38:51;;;;;;;5.72;4.68;;;25.50;1.00;;;;;;4996488;28;20215;-77
2023/07/22 06:41:18;;;;;;;5.72;4.47;;;23.40;1.00;;;;;;4977013;28;20343;-76
2023/07/22 06:43:44;;;;;;;6.05;4.78;;;22.40;1.00;;;;;;4987672;28;20196;-75
2023/07/22 06:46:10;;;;;;;5.30;4.00;;;22.10;1.00;;;;;;4993497;28;20212;-75
2023/07/22 06:48:36;;;;;;;8.13;4.68;;;22.50;1.00;;;;;;4986875;28;20196;-76
2023/07/22 06:51:01;;;;;;;6.07;5.18;;;23.20;1.00;;;;;;4986308;28;20679;-75
2023/07/22 06:53:27;;;;;;;6.90;4.47;;;24.00;1.00;;;;;;4987822;28;20181;-76
2023/07/22 06:55:53;;;;;;;4.95;4.30;;;24.00;1.00;;;;;;4987607;28;20617;-75
2023/07/22 06:58:19;;;;;;;5.22;4.72;;;23.50;1.00;;;;;;4991424;28;20180;-76
2023/07/22 07:00:45;;;;;;;5.88;5.30;;;23.00;1.00;;;;;;4973426;28;20588;-74
2023/07/22 07:03:11;;;;;;;5.78;5.20;;;22.30;1.00;;;;;;4989024;28;20242;-74
2023/07/22 07:05:40;;;;;;;7.35;5.50;;;21.40;1.00;;;;;;4993443;28;20212;-76
2023/07/22 07:08:06;;;;;;;7.53;5.80;;;20.80;1.00;;;;;;4983666;28;20553;-74
2023/07/22 07:10:37;;;;;;;8.68;5.97;;;20.40;1.00;;;;;;4989321;28;20204;-77
2023/07/22 07:13:02;;;;;;;6.05;4.90;;;19.60;1.00;;;;;;4994186;28;20592;-76
2023/07/22 07:15:28;;;;;;;6.05;5.15;;;19.10;1.00;;;;;;4987216;28;20208;-75
2023/07/22 07:17:54;;;;;;;6.80;5.68;;;18.90;1.00;;;;;;4987231;28;20180;-77
2023/07/22 07:20:20;;;;;;;7.00;5.72;;;18.90;1.00;;;;;;4992502;28;20562;-76
2023/07/22 07:22:46;;;;;;;6.82;5.28;;;19.50;1.00;;;;;;4993305;28;20207;-76
2023/07/22 07:25:11;;;;;;;6.00;5.40;;;19.50;1.00;;;;;;4991720;28;20684;-74
2023/07/22 07:27:37;;;;;;;6.95;6.22;;;20.20;1.00;;;;;;4986770;28;20199;-76
2023/07/22 07:30:03;;;;;;;6.97;6.00;;;21.20;1.00;;;;;;4992288;28;20212;-76
2023/07/22 07:32:29;;;;;;;5.95;5.32;;;21.10;1.00;;;;;;4986631;28;20675;-77
2023/07/22 07:34:55;;;;;;;7.47;5.95;;;20.50;1.00;;;;;;4993033;28;20254;-76
2023/07/22 07:37:22;;;;;;;8.75;6.30;;;20.00;1.00;;;;;;4993548;28;20674;-77
2023/07/22 07:39:48;;;;;;;5.95;5.25;;;19.70;1.00;;;;;;4993530;28;20183;-75
2023/07/22 07:42:14;;;;;;;7.43;5.88;;;19.80;1.00;;;;;;4990684;28;20207;-75
2023/07/22 07:44:40;;;;;;;7.07;5.70;;;20.10;1.00;;;;;;4985498;28;20256;-76
2023/07/22 07:47:06;;;;;;;7.00;5.35;;;20.50;1.00;;;;;;4992164;28;20195;-75
2023/07/22 07:49:31;;;;;;;7.82;5.50;;;20.40;1.00;;;;;;4986888;28;20632;-76
2023/07/22 07:51:57;;;;;;;5.53;5.03;;;19.90;1.00;;;;;;4986516;28;20184;-75
2023/07/22 07:54:22;;;;;;;6.63;5.35;;;19.30;1.00;;;;;;4995043;28;20272;-75
2023/07/22 07:56:48;;;;;;;6.82;5.22;;;19.30;1.00;;;;;;4992805;28;20662;-78
2023/07/22 07:59:14;;;;;;;6.38;5.68;;;19.80;1.00;;;;;;4989710;28;20196;-74
2023/07/22 08:01:41;;;;;;;7.53;6.25;;;19.70;1.00;;;;;;4989248;28;20279;-75
2023/07/22 08:04:09;;;;;;;6.57;5.25;;;19.50;1.00;;;;;;4986343;28;20192;-74
2023/07/22 08:06:37;;;;;;;5.68;5.18;;;19.60;1.00;;;;;;4987619;28;20188;-74
2023/07/22 08:09:05;;;;;;;5.53;5.03;;;19.70;1.00;;;;;;4984115;28;20218;-74
2023/07/22 08:11:30;;;;;;;8.90;5.45;;;19.80;1.00;;;;;;4970941;28;20203;-74
2023/07/22 08:13:56;;;;;;;6.75;6.15;;;19.90;1.00;;;;;;4977446;28;20183;-74
2023/07/22 08:16:22;;;;;;;6.78;5.97;;;19.70;1.00;;;;;;4997578;28;20286;-74
2023/07/22 08:18:48;;;;;;;6.45;5.82;;;19.60;1.00;;;;;;4972664;28;20188;-75
2023/07/22 08:21:13;;;;;;;7.18;5.97;;;19.60;1.00;;;;;;4996199;28;20203;-74
2023/07/22 08:23:39;;;;;;;6.70;6.00;;;19.50;1.00;;;;;;4995054;28;20177;-75
2023/07/22 08:26:05;;;;;;;6.53;5.78;;;19.40;1.00;;;;;;4990744;28;20212;-73
2023/07/22 08:28:31;;;;;;;5.68;5.07;;;19.40;1.00;;;;;;4989976;28;20290;-74
2023/07/22 08:30:58;;;;;;;6.40;5.75;;;19.70;1.00;;;;;;4993777;28;20196;-73
2023/07/22 08:33:24;;;;;;;7.05;5.47;;;19.70;1.00;;;;;;4989034;28;20180;-75
2023/07/22 08:35:51;;;;;;;7.45;5.68;;;19.70;1.00;;;;;;4991666;28;20204;-74
2023/07/22 08:38:17;;;;;;;6.03;5.40;;;19.70;1.00;;;;;;4985654;28;20189;-74
2023/07/22 08:40:43;;;;;;;6.13;5.53;;;19.70;1.00;;;;;;4989417;28;20836;-75
2023/07/22 08:43:10;;;;;;;5.90;5.30;;;19.90;1.00;;;;;;4992616;28;20286;-74
2023/07/22 08:45:38;;;;;;;5.63;4.88;;;20.20;1.00;;;;;;4992006;28;20208;-76
2023/07/22 08:48:07;;;;;;;5.10;4.70;;;20.50;1.00;;;;;;4993808;28;20237;-74
2023/07/22 08:51:07;;;;;;;6.72;5.63;;;20.20;1.00;;;;;;4991530;28;21183;-76
2023/07/22 08:53:33;;;;;;;6.22;5.10;;;19.80;1.00;;;;;;4974451;28;20303;-75
2023/07/22 08:55:59;;;;;;;6.53;5.85;;;19.70;1.00;;;;;;4994231;28;20196;-74
2023/07/22 08:58:25;;;;;;;7.07;6.38;;;19.50;1.00;;;;;;4985623;28;20535;-75
2023/07/22 09:00:52;;;;;;;9.25;6.07;;;19.50;1.00;;;;;;4974617;28;20678;-76
2023/07/22 09:03:18;;;;;;;6.65;5.95;;;19.70;1.00;;;;;;4989507;28;20202;-76
2023/07/22 09:05:45;;;;;;;6.60;5.95;;;19.90;1.00;;;;;;4985472;28;20211;-74
2023/07/22 09:08:11;;;;;;;7.80;6.20;;;20.10;1.00;;;;;;4987156;28;20246;-76
2023/07/22 09:10:37;;;;;;;7.43;6.03;;;20.20;1.00;;;;;;4971325;28;20211;-76
2023/07/22 09:13:03;;;;;;;7.15;6.55;;;20.10;1.00;;;;;;4987932;28;20188;-75
2023/07/22 09:15:31;;;;;;;7.07;6.38;;;20.10;1.00;;;;;;4990927;28;20204;-75
2023/07/22 09:17:58;;;;;;;7.80;7.00;;;20.00;1.00;;;;;;4989901;28;21050;-76
2023/07/22 09:20:24;;;;;;;8.25;7.43;;;20.30;1.00;;;;;;4986217;28;20223;-76
2023/07/22 09:22:51;;;;;;;7.75;7.03;;;20.60;1.00;;;;;;4989920;28;20549;-75
2023/07/22 09:25:22;;;;;;;8.05;7.00;;;20.70;1.00;;;;;;4990335;28;20250;-76
2023/07/22 09:27:50;;;;;;;8.02;7.20;;;20.10;1.00;;;;;;4989752;28;20203;-74
2023/07/22 09:30:21;;;;;;;8.45;7.50;;;20.00;1.00;;;;;;4994076;28;20789;-76
2023/07/22 09:32:53;;;;;;;8.00;7.03;;;20.00;1.00;;;;;;4978004;28;20186;-75
2023/07/22 09:35:19;;;;;;;9.77;7.65;;;19.90;1.00;;;;;;4989596;28;20291;-75
2023/07/22 09:37:45;;;;;;;8.15;7.40;;;19.90;1.00;;;;;;4982857;28;20263;-76
2023/07/22 09:40:19;;;;;;;9.20;6.70;;;20.10;1.00;;;;;;4983249;28;20272;-76
2023/07/22 09:42:49;;;;;;;7.90;7.18;;;20.30;1.00;;;;;;4983045;28;20287;-74
2023/07/22 09:45:16;;;;;;;8.80;7.25;;;20.50;1.00;;;;;;4979810;28;20244;-72
2023/07/22 09:47:47;;;;;;;8.85;7.10;;;20.50;1.00;;;;;;4967584;28;21957;-74
2023/07/22 09:50:15;;;;;;;7.45;6.63;;;20.50;1.00;;;;;;4987162;28;20314;-76
2023/07/22 09:52:52;;;;;;;7.68;6.90;;;20.50;1.00;;;;;;4984095;28;20191;-75
2023/07/22 09:55:20;;;;;;;7.90;7.13;;;20.40;1.00;;;;;;4990098;28;20630;-73
2023/07/22 09:57:57;;;;;;;7.90;7.18;;;20.30;1.00;;;;;;4990380;28;21105;-73
2023/07/22 10:00:25;;;;;;;9.15;7.18;;;20.20;1.00;;;;;;4987989;28;20192;-75
2023/07/22 10:02:52;;;;;;;7.55;6.72;;;20.40;1.00;;;;;;4974915;28;20245;-76
2023/07/22 10:05:19;;;;;;;7.50;6.80;;;20.70;1.00;;;;;;4991203;28;20958;-74
2023/07/22 10:07:48;;;;;;;7.68;6.82;;;20.90;1.00;;;;;;4986688;28;20188;-74
2023/07/22 10:10:17;;;;;;;8.95;6.68;;;21.10;1.00;;;;;;4973599;28;20754;-75
2023/07/22 10:12:43;;;;;;;6.85;6.18;;;21.10;1.00;;;;;;4983634;28;20176;-74
2023/07/22 10:15:12;;;;;;;6.82;6.22;;;21.00;1.00;;;;;;4996943;28;20243;-73
2023/07/22 10:17:39;;;;;;;7.28;6.20;;;20.80;1.00;;;;;;4993993;28;20199;-73
2023/07/22 10:20:07;;;;;;;6.88;6.20;;;20.50;1.00;;;;;;4992189;28;20250;-76
2023/07/22 10:22:37;;;;;;;6.40;5.80;;;20.40;1.00;;;;;;4988370;28;20195;-76
2023/07/22 10:25:08;;;;;;;6.55;5.95;;;20.30;1.00;;;;;;4988912;28;20196;-75
2023/07/22 10:27:35;;;;;;;5.72;5.22;;;20.40;1.00;;;;;;4992245;28;20208;-75
2023/07/22 10:30:03;;;;;;;6.05;4.88;;;20.30;1.00;;;;;;4994191;28;20200;-75
2023/07/22 10:32:33;;;;;;;6.20;5.00;;;20.40;1.00;;;;;;4988311;28;20184;-78
2023/07/22 10:35:00;;;;;;;5.00;4.60;;;20.30;1.00;;;;;;4997844;28;20210;-75
2023/07/22 10:37:33;;;;;;;5.38;4.88;;;20.20;1.00;;;;;;4998675;28;21017;-74
2023/07/22 10:40:00;;;;;;;6.35;4.90;;;20.30;1.00;;;;;;4989187;28;20683;-76
2023/07/22 10:42:26;;;;;;;4.85;4.38;;;20.40;1.00;;;;;;4995565;28;20191;-76
2023/07/22 10:44:52;;;;;;;5.72;4.32;;;20.50;1.00;;;;;;4992734;28;20215;-75
2023/07/22 10:47:34;;;;;;;4.35;3.95;;;20.40;1.00;;;;;;4994395;28;20675;-76
2023/07/22 10:50:07;;;;;;;4.85;4.35;;;20.40;1.00;;;;;;4992802;28;20214;-76
2023/07/22 10:52:44;;;;;;;4.18;3.78;;;20.50;1.00;;;;;;4992824;28;20180;-74
2023/07/22 10:55:17;;;;;;;5.88;4.07;;;20.70;1.00;;;;;;4990828;28;20547;-76
2023/07/22 10:57:51;;;;;;;5.22;4.10;;;21.00;1.00;;;;;;4991866;28;20657;-77
2023/07/22 11:00:20;;;;;;;4.95;4.03;;;20.90;1.00;;;;;;4987530;28;20188;-76
2023/07/22 11:03:07;;;;;;;4.78;3.70;;;20.90;1.00;;;;;;4987338;28;20192;-75
2023/07/22 11:05:55;;;;;;;4.72;4.13;;;21.20;1.00;;;;;;4989647;28;20324;-76
2023/07/22 11:08:39;;;;;;;4.47;4.07;;;21.40;1.00;;;;;;4997152;28;20557;-76
2023/07/22 11:11:05;;;;;;;4.05;3.67;;;21.20;1.00;;;;;;4987961;28;20212;-75
2023/07/22 11:13:37;;;;;;;4.40;3.92;;;21.20;1.00;;;;;;4978367;28;20227;-77
2023/07/22 11:16:03;;;;;;;4.20;3.80;;;21.00;1.00;;;;;;4989985;28;20200;-76
2023/07/22 11:18:39;;;;;;;4.45;4.05;;;21.20;1.00;;;;;;4990340;28;20183;-74
2023/07/22 11:21:11;;;;;;;4.05;3.60;;;21.50;1.00;;;;;;4978172;28;20195;-77
2023/07/22 11:23:36;;;;;;;4.38;3.75;;;21.70;1.00;;;;;;4997898;28;20184;-73
2023/07/22 11:26:03;;;;;;;3.95;3.55;;;21.80;1.00;;;;;;4999028;28;20210;-77
2023/07/22 11:28:30;;;;;;;4.07;3.40;;;21.90;1.00;;;;;;4973975;28;20192;-76
2023/07/22 11:30:56;;;;;;;4.03;3.60;;;22.00;1.00;;;;;;4993709;28;20211;-76
2023/07/22 11:33:22;;;;;;;3.80;3.50;;;22.00;1.00;;;;;;4989994;28;20189;-79
2023/07/22 11:35:47;;;;;;;3.80;3.50;;;22.00;1.00;;;;;;4987613;28;20212;-75
2023/07/22 11:38:13;;;;;;;4.20;3.70;;;22.00;1.00;;;;;;4997264;28;20183;-77
2023/07/22 11:40:39;;;;;;;4.28;3.88;;;22.10;1.00;;;;;;4994862;28;20614;-74
2023/07/22 11:43:05;;;;;;;3.65;3.35;;;22.20;1.00;;;;;;4994895;28;20304;-74
2023/07/22 11:45:31;;;;;;;3.60;3.25;;;22.00;1.00;;;;;;4997146;23;20341;-86
2023/07/22 11:47:57;;;;;;;4.53;4.10;;;22.00;1.00;;;;;;4984921;28;20677;-87
2023/07/22 11:50:33;;;;;;;5.22;4.22;;;22.40;1.00;;;;;;4975526;28;20216;-86
2023/07/22 11:52:59;;;;;;;3.92;3.63;;;22.40;1.00;;;;;;4995987;28;20249;-86
2023/07/22 11:55:25;;;;;;;4.55;3.97;;;22.70;1.00;;;;;;4978471;28;20188;-86
2023/07/22 11:57:54;;;;;;;4.20;3.83;;;22.60;1.00;;;;;;4996544;28;20191;-86
2023/07/22 12:00:21;;;;;;;30.92;4.32;;;22.40;1.00;;;;;;4985483;28;20196;-86
2023/07/22 12:02:49;;;;;;;5.07;4.55;;;22.50;1.00;;;;;;4995464;28;20212;-87
2023/07/22 12:05:21;;;;;;;5.38;4.10;;;22.50;1.00;;;;;;4978456;28;20231;-87
2023/07/22 12:07:47;;;;;;;5.05;4.45;;;22.60;1.00;;;;;;4993374;28;20188;-86
2023/07/22 12:10:15;;;;;;;4.85;4.35;;;22.60;1.00;;;;;;5000823;28;20215;-86
2023/07/22 12:12:46;;;;;;;5.00;4.50;;;22.70;1.00;;;;;;4994591;28;20561;-86
2023/07/22 12:15:23;;;;;;;7.53;5.28;;;22.60;1.00;;;;;;4979243;28;20579;-87
2023/07/22 12:18:15;;;;;;;5.10;4.60;;;22.40;1.00;;;;;;4985592;28;20172;-88
2023/07/22 12:20:40;;;;;;;5.70;5.20;;;22.60;1.00;;;;;;4973163;28;20267;-86
2023/07/22 12:23:06;;;;;;;5.60;5.10;;;22.40;1.00;;;;;;4975517;28;20642;-86
2023/07/22 12:25:32;;;;;;;4.85;4.45;;;22.40;1.00;;;;;;4974066;28;20197;-87
2023/07/22 12:27:58;;;;;;;5.43;5.03;;;22.70;1.00;;;;;;4973638;28;20666;-87
2023/07/22 12:30:24;;;;;;;5.68;4.72;;;22.90;1.00;;;;;;4982361;28;20212;-87
2023/07/22 12:32:50;;;;;;;4.60;4.20;;;23.00;1.00;;;;;;4975966;28;20234;-87
2023/07/22 12:35:15;;;;;;;7.53;5.00;;;23.00;1.00;;;;;;4981631;28;20654;-87
2023/07/22 12:37:41;;;;;;;4.55;4.18;;;23.10;1.00;;;;;;4981963;28;20188;-86
2023/07/22 12:40:08;;;;;;;4.53;4.18;;;22.90;1.00;;;;;;4984071;28;20769;-87
2023/07/22 12:42:34;;;;;;;5.65;4.35;;;22.90;1.00;;;;;;4984475;28;20188;-87
2023/07/22 12:45:00;;;;;;;5.50;4.03;;;22.90;1.00;;;;;;4978450;28;20188;-87
2023/07/22 12:47:26;;;;;;;5.07;4.65;;;23.10;1.00;;;;;;4979680;28;20191;-87
2023/07/22 12:49:51;;;;;;;5.63;4.75;;;23.30;1.00;;;;;;4993476;28;20246;-87
2023/07/22 12:52:17;;;;;;;5.70;5.10;;;23.60;1.00;;;;;;4983346;28;20188;-87
2023/07/22 12:54:42;;;;;;;5.28;4.80;;;23.20;1.00;;;;;;4982972;28;20181;-87
2023/07/22 12:57:08;;;;;;;4.95;4.55;;;23.10;1.00;;;;;;4983044;28;20191;-86